createdAt,value
2022-09-04T04:00:29.844Z,17.63
2022-09-04T04:05:29.756Z,17.83
2022-09-04T04:10:29.683Z,17.72
2022-09-04T04:15:29.640Z,17.75
2022-09-04T04:20:29.586Z,17.77
2022-09-04T04:25:29.541Z,17.73
2022-09-04T04:30:29.465Z,17.72
2022-09-04T04:35:29.426Z,17.66
2022-09-04T04:40:29.374Z,17.64
2022-09-04T04:45:29.301Z,17.65
2022-09-04T04:50:29.261Z,17.64
2022-09-04T04:55:29.208Z,17.59
2022-09-04T05:00:29.163Z,17.68
2022-09-04T05:05:29.103Z,17.64
2022-09-04T05:10:29.048Z,17.81
2022-09-04T05:15:29.122Z,17.90
2022-09-04T05:20:28.935Z,17.95
2022-09-04T05:25:28.880Z,18.12
2022-09-04T05:30:28.825Z,18.30
2022-09-04T05:35:31.931Z,18.41
2022-09-04T05:40:29.719Z,18.94
2022-09-04T05:45:28.664Z,20.48
2022-09-04T05:50:28.612Z,21.88
2022-09-04T05:55:28.558Z,23.08
2022-09-04T06:00:28.510Z,23.13
2022-09-04T06:05:28.453Z,23.55
2022-09-04T06:10:28.398Z,23.01
2022-09-04T06:15:28.346Z,22.91
2022-09-04T06:20:28.284Z,23.88
2022-09-04T06:25:28.231Z,24.86
2022-09-04T06:30:28.183Z,25.55
2022-09-04T06:35:28.129Z,26.01
2022-09-04T06:40:28.076Z,26.16
2022-09-04T06:45:28.017Z,25.97
2022-09-04T06:50:27.981Z,26.51
2022-09-04T06:55:27.910Z,25.94
2022-09-04T07:00:27.860Z,25.34
2022-09-04T07:05:27.807Z,26.03
2022-09-04T07:10:27.756Z,27.84
2022-09-04T07:15:27.733Z,28.56
2022-09-04T07:20:27.650Z,28.75
2022-09-04T07:25:27.594Z,27.98
2022-09-04T07:30:27.548Z,27.92
2022-09-04T07:35:27.491Z,28.71
2022-09-04T07:40:27.917Z,28.25
2022-09-04T07:45:27.388Z,28.72
2022-09-04T07:50:27.328Z,28.85
2022-09-04T07:55:27.274Z,28.07
2022-09-04T08:00:27.223Z,27.68
2022-09-04T08:05:27.169Z,27.50
2022-09-04T08:10:27.118Z,28.26
2022-09-04T08:15:27.130Z,28.54
2022-09-04T08:20:27.140Z,28.53
2022-09-04T08:25:26.954Z,29.14
2022-09-04T08:30:26.892Z,29.74
2022-09-04T08:35:26.837Z,30.28
2022-09-04T08:40:26.801Z,30.62
2022-09-04T08:45:26.864Z,30.55
2022-09-04T08:50:26.687Z,30.39
2022-09-04T08:55:26.623Z,30.90
2022-09-04T09:00:26.572Z,30.88
2022-09-04T09:05:26.521Z,29.99
2022-09-04T09:10:26.471Z,30.07
2022-09-04T09:15:26.413Z,29.25
2022-09-04T09:20:26.373Z,29.14
2022-09-04T09:25:26.321Z,29.25
2022-09-04T09:30:26.289Z,28.51
2022-09-04T09:35:26.211Z,28.70
2022-09-04T09:40:26.176Z,28.31
2022-09-04T09:45:26.091Z,27.98
2022-09-04T09:50:26.051Z,27.31
2022-09-04T09:55:26.008Z,27.73
2022-09-04T10:00:25.940Z,28.09
2022-09-04T10:05:25.897Z,28.05
2022-09-04T10:10:25.841Z,28.78
2022-09-04T10:15:33.132Z,28.51
2022-09-04T10:20:25.716Z,28.39
2022-09-04T10:25:25.679Z,28.44
2022-09-04T10:30:25.718Z,28.54
2022-09-04T10:35:25.643Z,28.46
2022-09-04T10:40:25.531Z,28.43
2022-09-04T10:45:25.456Z,28.53
2022-09-04T10:50:25.416Z,28.86
2022-09-04T10:55:25.364Z,28.93
2022-09-04T11:00:25.300Z,29.08
2022-09-04T11:05:25.264Z,29.36
2022-09-04T11:10:25.306Z,28.77
2022-09-04T11:15:25.144Z,29.79
2022-09-04T11:20:25.099Z,30.25
2022-09-04T11:25:25.050Z,30.01
2022-09-04T11:30:25.006Z,30.23
2022-09-04T11:35:24.929Z,30.34
2022-09-04T11:40:24.884Z,30.00
2022-09-04T11:45:24.975Z,28.26
2022-09-04T11:50:24.775Z,29.09
2022-09-04T11:55:24.736Z,29.76
2022-09-04T12:00:24.690Z,30.23
2022-09-04T12:05:24.617Z,30.85
2022-09-04T12:10:24.572Z,31.46
2022-09-04T12:15:24.525Z,29.87
2022-09-04T12:20:24.454Z,29.65
2022-09-04T12:25:24.434Z,30.47
2022-09-04T12:30:24.379Z,30.79
2022-09-04T12:35:27.474Z,30.95
2022-09-04T12:40:25.273Z,30.68
2022-09-04T12:45:24.281Z,30.70
2022-09-04T12:50:24.158Z,29.61
2022-09-04T12:55:24.090Z,30.07
2022-09-04T13:00:24.050Z,30.16
2022-09-04T13:05:24.002Z,30.33
2022-09-04T13:10:23.957Z,30.67
2022-09-04T13:15:23.906Z,29.93
2022-09-04T13:20:23.858Z,29.41
2022-09-04T13:25:23.783Z,29.20
2022-09-04T13:30:23.751Z,28.66
2022-09-04T13:35:23.690Z,28.85
2022-09-04T13:40:23.623Z,29.29
2022-09-04T13:45:23.581Z,29.12
2022-09-04T13:50:25.940Z,29.69
2022-09-04T13:55:23.463Z,29.48
2022-09-04T14:00:23.481Z,29.26
2022-09-04T14:05:23.378Z,28.80
2022-09-04T14:10:23.305Z,28.92
2022-09-04T14:15:23.260Z,29.05
2022-09-04T14:20:23.224Z,29.36
2022-09-04T14:25:24.230Z,28.95
2022-09-04T14:30:23.138Z,29.41
2022-09-04T14:35:23.052Z,29.28
2022-09-04T14:40:23.002Z,29.18
2022-09-04T14:45:22.958Z,29.14
2022-09-04T14:50:22.879Z,29.02
2022-09-04T14:55:22.839Z,29.38
2022-09-04T15:00:22.795Z,29.40
2022-09-04T15:05:22.722Z,29.95
2022-09-04T15:10:22.683Z,29.72
2022-09-04T15:15:22.629Z,29.79
2022-09-04T15:20:22.568Z,29.49
2022-09-04T15:25:36.649Z,29.58
2022-09-04T15:30:23.482Z,29.82
2022-09-04T15:35:22.403Z,29.86
2022-09-04T15:40:22.367Z,29.61
2022-09-04T15:45:22.316Z,29.55
2022-09-04T15:50:22.248Z,29.07
2022-09-04T15:55:22.210Z,29.23
2022-09-04T16:00:22.164Z,29.19
2022-09-04T16:05:24.005Z,29.38
2022-09-04T16:10:22.137Z,29.11
2022-09-04T16:15:21.996Z,29.14
2022-09-04T16:20:21.955Z,29.18
2022-09-04T16:25:23.575Z,29.03
2022-09-04T16:30:21.838Z,28.96
2022-09-04T16:35:21.794Z,28.68
2022-09-04T16:40:21.724Z,28.68
2022-09-04T16:45:21.686Z,28.68
2022-09-04T16:50:21.634Z,28.59
2022-09-04T16:55:21.587Z,28.58
2022-09-04T17:00:21.528Z,28.45
2022-09-04T17:05:21.478Z,28.34
2022-09-04T17:10:22.419Z,28.21
2022-09-04T17:15:21.354Z,28.12
2022-09-04T17:20:21.313Z,27.98
2022-09-04T17:28:59.892Z,27.74
2022-09-04T17:30:25.644Z,27.61
2022-09-04T17:40:43.588Z,27.38
2022-09-04T17:40:55.964Z,27.14
2022-09-04T17:45:22.095Z,26.84
2022-09-04T17:50:20.991Z,26.58
2022-09-04T17:55:21.198Z,26.21
2022-09-04T18:00:20.869Z,26.05
2022-09-04T18:05:20.825Z,25.76
2022-09-04T18:10:20.780Z,25.48
2022-09-04T18:15:34.306Z,25.20
2022-09-04T18:20:21.669Z,25.06
2022-09-04T18:25:20.621Z,24.90
2022-09-04T18:33:00.427Z,24.74
2022-09-04T18:37:24.736Z,24.64
2022-09-04T18:40:43.152Z,24.43
2022-09-04T18:50:46.626Z,24.24
2022-09-04T18:51:03.109Z,24.12
2022-09-04T18:55:21.288Z,24.03
2022-09-04T19:00:20.245Z,23.85
2022-09-04T19:05:20.206Z,23.72
2022-09-04T19:10:20.128Z,23.60
2022-09-04T19:15:20.090Z,23.55
2022-09-04T19:20:20.033Z,23.74
2022-09-04T19:25:19.979Z,23.95
2022-09-04T19:30:23.844Z,23.92
2022-09-04T19:35:19.870Z,23.79
2022-09-04T19:45:55.133Z,23.69
2022-09-04T19:46:14.823Z,23.80
2022-09-04T19:53:21.350Z,23.87
2022-09-04T19:55:24.729Z,23.80
2022-09-04T20:00:43.208Z,23.61
2022-09-04T20:05:20.535Z,23.59
2022-09-04T20:10:19.484Z,23.44
2022-09-04T20:15:19.438Z,23.25
2022-09-04T20:20:19.386Z,23.30
2022-09-04T20:25:19.329Z,23.22
2022-09-04T20:30:19.278Z,23.18
2022-09-04T20:35:33.290Z,23.07
2022-09-04T20:40:20.167Z,22.94
2022-09-04T20:47:11.326Z,22.87
2022-09-04T20:52:53.679Z,22.88
2022-09-04T20:55:20.006Z,22.81
2022-09-04T21:03:13.782Z,22.72
2022-09-04T21:05:20.060Z,22.67
2022-09-04T21:10:18.847Z,22.59
2022-09-04T21:15:18.790Z,22.72
2022-09-04T21:20:18.740Z,22.65
2022-09-04T21:25:18.869Z,22.69
2022-09-04T21:30:18.625Z,22.77
2022-09-04T21:35:18.580Z,22.60
2022-09-04T21:40:20.210Z,22.56
2022-09-04T21:45:19.465Z,22.46
2022-09-04T21:50:20.308Z,22.28
2022-09-04T21:58:06.738Z,22.14
2022-09-04T22:02:36.344Z,22.17
2022-09-04T22:05:19.260Z,22.16
2022-09-04T22:13:34.539Z,22.19
2022-09-04T22:15:25.050Z,22.08
2022-09-04T22:20:19.096Z,22.12
2022-09-04T22:25:18.034Z,22.11
2022-09-04T22:30:17.988Z,22.12
2022-09-04T22:35:17.933Z,22.02
2022-09-04T22:40:17.961Z,22.03
2022-09-04T22:45:17.824Z,22.12
2022-09-04T22:50:17.768Z,22.15
2022-09-04T22:55:38.477Z,22.09
2022-09-04T23:00:18.662Z,21.95
2022-09-04T23:05:17.605Z,21.90
2022-09-04T23:14:01.021Z,21.80
2022-09-04T23:15:18.497Z,21.76
2022-09-04T23:25:25.781Z,21.84
2022-09-04T23:26:45.672Z,21.78
